createdAt,value
2022-10-04T00:00:06.075Z,90.81
2022-10-04T00:00:16.049Z,90.91
2022-10-04T00:00:26.862Z,91.01
2022-10-04T00:00:36.062Z,91.11
2022-10-04T00:00:46.054Z,91.22
2022-10-04T00:00:56.166Z,91.22
2022-10-04T00:01:06.071Z,91.16
2022-10-04T00:01:17.066Z,91.11
2022-10-04T00:01:28.922Z,91.01
2022-10-04T00:01:36.079Z,91.26
2022-10-04T00:01:46.888Z,91.31
2022-10-04T00:01:56.071Z,91.22
2022-10-04T00:02:06.106Z,91.31
2022-10-04T00:02:16.171Z,91.22
2022-10-04T00:02:26.174Z,91.56
2022-10-04T00:02:36.122Z,91.46
2022-10-04T00:02:46.099Z,91.56
2022-10-04T00:02:56.084Z,91.52
2022-10-04T00:03:06.187Z,91.52
2022-10-04T00:03:16.245Z,91.42
2022-10-04T00:03:26.156Z,91.52
2022-10-04T00:03:36.857Z,91.46
2022-10-04T00:03:46.873Z,91.22
2022-10-04T00:03:56.032Z,91.11
2022-10-04T00:04:06.090Z,91.01
2022-10-04T00:04:16.047Z,91.01
2022-10-04T00:04:26.889Z,91.01
2022-10-04T00:04:36.071Z,91.01
2022-10-04T00:04:46.037Z,91.16
2022-10-04T00:04:56.055Z,91.11
2022-10-04T00:05:06.074Z,91.11
2022-10-04T00:05:16.034Z,91.01
2022-10-04T00:05:26.864Z,91.26
2022-10-04T00:05:36.024Z,91.36
2022-10-04T00:05:46.042Z,91.36
2022-10-04T00:05:56.047Z,91.36
2022-10-04T00:06:06.109Z,91.36
2022-10-04T00:06:16.040Z,91.22
2022-10-04T00:06:26.045Z,91.16
2022-10-04T00:06:36.105Z,91.31
2022-10-04T00:06:46.031Z,91.36
2022-10-04T00:06:56.055Z,91.52
2022-10-04T00:07:06.031Z,91.46
2022-10-04T00:07:16.036Z,91.42
2022-10-04T00:07:26.875Z,91.31
2022-10-04T00:07:36.120Z,91.11
2022-10-04T00:07:46.039Z,90.91
2022-10-04T00:07:56.031Z,91.01
2022-10-04T00:08:06.019Z,91.01
2022-10-04T00:08:16.155Z,91.01
2022-10-04T00:08:26.014Z,91.16
2022-10-04T00:08:36.039Z,91.16
2022-10-04T00:08:46.055Z,91.36
2022-10-04T00:08:56.012Z,91.42
2022-10-04T00:09:06.027Z,91.42
2022-10-04T00:09:16.028Z,91.42
2022-10-04T00:09:26.017Z,91.46
2022-10-04T00:09:36.862Z,91.22
2022-10-04T00:09:46.859Z,91.36
2022-10-04T00:09:56.004Z,91.52
2022-10-04T00:10:06.021Z,91.56
2022-10-04T00:10:16.008Z,91.42
2022-10-04T00:10:26.134Z,91.56
2022-10-04T00:10:36.011Z,91.42
2022-10-04T00:10:46.044Z,91.42
2022-10-04T00:10:56.011Z,91.52
2022-10-04T00:11:06.027Z,91.42
2022-10-04T00:11:16.291Z,91.56
2022-10-04T00:11:26.017Z,91.52
2022-10-04T00:11:36.049Z,91.62
2022-10-04T00:11:46.171Z,91.66
2022-10-04T00:11:56.012Z,91.52
2022-10-04T00:12:06.043Z,91.42
2022-10-04T00:12:15.995Z,91.31
2022-10-04T00:12:26.019Z,91.31
2022-10-04T00:12:36.041Z,91.52
2022-10-04T00:12:46.008Z,91.42
2022-10-04T00:12:55.994Z,91.46
2022-10-04T00:13:06.039Z,91.62
2022-10-04T00:13:15.999Z,91.62
2022-10-04T00:13:25.996Z,91.52
2022-10-04T00:13:36.079Z,91.72
2022-10-04T00:13:46.085Z,91.66
2022-10-04T00:13:56.024Z,91.62
2022-10-04T00:14:05.991Z,91.66
2022-10-04T00:14:15.994Z,91.66
2022-10-04T00:14:26.049Z,91.77
2022-10-04T00:14:36.052Z,91.66
2022-10-04T00:14:45.999Z,91.52
2022-10-04T00:14:57.101Z,91.66
2022-10-04T00:15:05.991Z,91.56
2022-10-04T00:15:16.099Z,91.66
2022-10-04T00:15:26.014Z,91.72
2022-10-04T00:15:35.989Z,91.62
2022-10-04T00:15:46.070Z,91.56
2022-10-04T00:15:56.177Z,91.42
2022-10-04T00:16:06.071Z,91.22
2022-10-04T00:16:16.091Z,91.16
2022-10-04T00:16:26.147Z,91.22
2022-10-04T00:16:36.021Z,91.22
2022-10-04T00:16:46.026Z,91.31
2022-10-04T00:16:56.037Z,91.22
2022-10-04T00:17:05.978Z,91.31
2022-10-04T00:17:15.982Z,91.31
2022-10-04T00:17:26.034Z,91.05
2022-10-04T00:17:35.988Z,91.01
2022-10-04T00:17:46.948Z,91.01
2022-10-04T00:17:56.056Z,90.91
2022-10-04T00:18:06.101Z,90.91
2022-10-04T00:18:15.991Z,90.91
2022-10-04T00:18:25.974Z,90.81
2022-10-04T00:18:35.995Z,90.81
2022-10-04T00:18:46.017Z,90.81
2022-10-04T00:18:55.968Z,90.91
2022-10-04T00:19:05.980Z,90.70
2022-10-04T00:19:16.017Z,90.70
2022-10-04T00:19:25.971Z,90.81
2022-10-04T00:19:35.966Z,90.91
2022-10-04T00:19:45.973Z,90.85
2022-10-04T00:19:56.871Z,90.85
2022-10-04T00:20:06.091Z,90.81
2022-10-04T00:20:15.955Z,90.81
2022-10-04T00:20:25.965Z,90.81
2022-10-04T00:20:36.001Z,90.91
2022-10-04T00:20:45.957Z,90.91
2022-10-04T00:20:55.981Z,90.91
2022-10-04T00:21:05.996Z,90.95
2022-10-04T00:21:15.956Z,90.81
2022-10-04T00:21:25.985Z,90.95
2022-10-04T00:21:36.101Z,90.81
2022-10-04T00:21:45.965Z,90.95
2022-10-04T00:21:56.918Z,91.05
2022-10-04T00:22:06.903Z,91.01
2022-10-04T00:22:15.950Z,91.05
2022-10-04T00:22:25.968Z,90.85
2022-10-04T00:22:35.973Z,90.81
2022-10-04T00:22:45.954Z,90.95
2022-10-04T00:22:55.955Z,90.70
2022-10-04T00:23:06.026Z,90.75
2022-10-04T00:23:15.967Z,90.91
2022-10-04T00:23:25.948Z,90.91
2022-10-04T00:23:35.956Z,90.85
2022-10-04T00:23:45.955Z,90.81
2022-10-04T00:23:55.964Z,90.70
2022-10-04T00:24:06.131Z,90.64
2022-10-04T00:24:16.051Z,90.60
2022-10-04T00:24:25.966Z,90.70
2022-10-04T00:24:36.034Z,90.64
2022-10-04T00:24:45.958Z,90.70
2022-10-04T00:24:55.956Z,90.81
2022-10-04T00:25:05.940Z,90.75
2022-10-04T00:25:15.952Z,90.85
2022-10-04T00:25:26.005Z,90.85
2022-10-04T00:25:35.932Z,90.85
2022-10-04T00:25:45.959Z,90.81
2022-10-04T00:25:55.929Z,90.81
2022-10-04T00:26:05.967Z,90.60
2022-10-04T00:26:15.980Z,90.60
2022-10-04T00:26:26.887Z,90.70
2022-10-04T00:26:36.888Z,90.60
2022-10-04T00:26:46.000Z,90.50
2022-10-04T00:26:55.924Z,90.64
2022-10-04T00:27:05.941Z,90.40
2022-10-04T00:27:16.001Z,90.44
2022-10-04T00:27:25.935Z,90.44
2022-10-04T00:27:35.940Z,90.30
2022-10-04T00:27:46.876Z,90.30
2022-10-04T00:27:55.976Z,90.30
2022-10-04T00:28:05.957Z,90.40
2022-10-04T00:28:17.068Z,90.40
2022-10-04T00:28:26.019Z,90.40
2022-10-04T00:28:36.871Z,90.20
2022-10-04T00:28:45.920Z,90.30
2022-10-04T00:28:55.942Z,90.20
2022-10-04T00:29:05.930Z,90.20
2022-10-04T00:29:15.920Z,90.24
2022-10-04T00:29:25.929Z,90.30
2022-10-04T00:29:35.977Z,90.20
2022-10-04T00:29:45.911Z,90.30
2022-10-04T00:29:55.931Z,90.20
2022-10-04T00:30:05.937Z,90.34
2022-10-04T00:30:15.996Z,90.20
2022-10-04T00:30:26.126Z,90.09
2022-10-04T00:30:35.974Z,90.20
2022-10-04T00:30:45.907Z,90.20
2022-10-04T00:30:55.985Z,90.09
2022-10-04T00:31:06.002Z,89.99
2022-10-04T00:31:16.026Z,89.99
2022-10-04T00:31:25.972Z,89.99
2022-10-04T00:31:35.965Z,89.99
2022-10-04T00:31:46.007Z,89.99
2022-10-04T00:31:56.051Z,89.89
2022-10-04T00:32:05.899Z,89.99
2022-10-04T00:32:15.907Z,89.99
2022-10-04T00:32:25.932Z,89.99
2022-10-04T00:32:35.903Z,90.14
2022-10-04T00:32:45.925Z,90.09
2022-10-04T00:32:55.923Z,90.09
2022-10-04T00:33:05.907Z,89.99
2022-10-04T00:33:15.914Z,90.09
2022-10-04T00:33:25.928Z,90.20
2022-10-04T00:33:35.903Z,90.09
2022-10-04T00:33:45.917Z,90.24
2022-10-04T00:33:55.931Z,90.20
2022-10-04T00:34:05.898Z,90.20
2022-10-04T00:34:15.927Z,90.09
2022-10-04T00:34:30.035Z,90.09
2022-10-04T00:34:36.103Z,90.20
2022-10-04T00:34:45.901Z,90.09
2022-10-04T00:34:55.894Z,90.20
2022-10-04T00:35:05.906Z,90.24
2022-10-04T00:35:15.925Z,90.09
2022-10-04T00:35:25.891Z,90.14
2022-10-04T00:35:35.899Z,90.09
2022-10-04T00:35:45.908Z,90.09
2022-10-04T00:35:55.891Z,89.99
2022-10-04T00:36:05.901Z,90.09
2022-10-04T00:36:15.911Z,90.09
2022-10-04T00:36:27.073Z,90.09
2022-10-04T00:36:39.056Z,90.09
2022-10-04T00:36:46.874Z,89.95
2022-10-04T00:36:55.889Z,90.05
2022-10-04T00:37:05.955Z,90.09
2022-10-04T00:37:15.901Z,90.20
2022-10-04T00:37:25.991Z,90.09
2022-10-04T00:37:36.880Z,90.09
2022-10-04T00:37:45.877Z,90.09
2022-10-04T00:37:55.881Z,89.99
2022-10-04T00:38:05.905Z,89.99
2022-10-04T00:38:15.875Z,89.99
2022-10-04T00:38:25.894Z,90.05
2022-10-04T00:38:35.894Z,89.99
2022-10-04T00:38:45.949Z,90.09
2022-10-04T00:38:55.890Z,90.14
2022-10-04T00:39:08.386Z,90.09
2022-10-04T00:39:15.879Z,90.09
2022-10-04T00:39:25.877Z,90.20
2022-10-04T00:39:35.887Z,90.09
2022-10-04T00:39:45.875Z,90.20
2022-10-04T00:39:55.886Z,90.09
2022-10-04T00:40:05.868Z,90.20
2022-10-04T00:40:15.893Z,90.20
2022-10-04T00:40:25.885Z,90.14
2022-10-04T00:40:35.872Z,90.20
2022-10-04T00:40:46.412Z,90.20
2022-10-04T00:40:56.022Z,90.20
2022-10-04T00:41:05.862Z,90.09
2022-10-04T00:41:15.867Z,90.20
2022-10-04T00:41:25.868Z,90.14
2022-10-04T00:41:35.860Z,90.20
2022-10-04T00:41:45.888Z,90.09
2022-10-04T00:41:55.868Z,90.09
2022-10-04T00:42:05.860Z,90.09
2022-10-04T00:42:15.995Z,90.09
2022-10-04T00:42:25.915Z,90.09
2022-10-04T00:42:35.854Z,89.99
2022-10-04T00:42:45.873Z,89.99
2022-10-04T00:42:56.046Z,89.94
2022-10-04T00:43:05.895Z,89.99
2022-10-04T00:43:15.876Z,89.89
2022-10-04T00:43:25.857Z,89.94
2022-10-04T00:43:35.895Z,89.94
2022-10-04T00:43:45.852Z,89.89
2022-10-04T00:43:55.883Z,89.99
2022-10-04T00:44:05.858Z,89.99
2022-10-04T00:44:15.878Z,89.95
2022-10-04T00:44:25.842Z,90.09
2022-10-04T00:44:35.860Z,89.99
2022-10-04T00:44:45.856Z,89.99
2022-10-04T00:44:56.059Z,89.99
2022-10-04T00:45:05.869Z,90.03
2022-10-04T00:45:15.842Z,89.99
2022-10-04T00:45:25.845Z,89.99
2022-10-04T00:45:35.860Z,90.14
2022-10-04T00:45:45.971Z,90.09
2022-10-04T00:45:55.886Z,90.09
2022-10-04T00:46:05.920Z,89.99
2022-10-04T00:46:15.899Z,90.03
2022-10-04T00:46:25.898Z,90.09
2022-10-04T00:46:35.885Z,89.99
2022-10-04T00:46:45.939Z,90.14
2022-10-04T00:46:55.846Z,89.89
2022-10-04T00:47:05.897Z,89.89
2022-10-04T00:47:15.900Z,89.89
2022-10-04T00:47:25.886Z,89.89
2022-10-04T00:47:35.842Z,89.89
2022-10-04T00:47:45.834Z,89.89
2022-10-04T00:47:55.850Z,89.99
2022-10-04T00:48:05.840Z,89.99
2022-10-04T00:48:15.862Z,89.99
2022-10-04T00:48:31.067Z,89.99
2022-10-04T00:48:35.881Z,89.95
2022-10-04T00:48:45.836Z,90.03
2022-10-04T00:48:55.851Z,89.99
2022-10-04T00:49:06.396Z,89.99
2022-10-04T00:49:15.826Z,89.99
2022-10-04T00:49:25.853Z,90.09
2022-10-04T00:49:35.832Z,89.99
2022-10-04T00:49:45.823Z,89.99
2022-10-04T00:49:55.853Z,89.99
2022-10-04T00:50:05.825Z,89.99
2022-10-04T00:50:15.835Z,89.89
2022-10-04T00:50:25.823Z,89.89
2022-10-04T00:50:35.910Z,89.89
2022-10-04T00:50:45.832Z,89.99
2022-10-04T00:50:55.849Z,89.99
2022-10-04T00:51:05.815Z,90.03
2022-10-04T00:51:15.900Z,90.09
2022-10-04T00:51:25.816Z,90.09
2022-10-04T00:51:35.834Z,89.99
2022-10-04T00:51:45.839Z,90.20
2022-10-04T00:51:55.821Z,89.99
2022-10-04T00:52:05.852Z,89.99
2022-10-04T00:52:15.836Z,89.99
2022-10-04T00:52:25.838Z,89.94
2022-10-04T00:52:35.857Z,89.79
2022-10-04T00:52:45.838Z,89.79
2022-10-04T00:52:55.820Z,89.79
2022-10-04T00:53:05.921Z,89.79
2022-10-04T00:53:15.841Z,89.79
2022-10-04T00:53:25.933Z,89.89
2022-10-04T00:53:35.816Z,89.89
2022-10-04T00:53:45.817Z,89.85
2022-10-04T00:53:55.804Z,89.99
2022-10-04T00:54:06.382Z,89.89
2022-10-04T00:54:15.816Z,89.89
2022-10-04T00:54:25.795Z,89.89
2022-10-04T00:54:36.386Z,89.89
2022-10-04T00:54:45.801Z,89.89
2022-10-04T00:54:55.828Z,89.89
2022-10-04T00:55:05.845Z,89.89
2022-10-04T00:55:15.826Z,89.89
2022-10-04T00:55:26.412Z,89.99
2022-10-04T00:55:35.824Z,89.89
2022-10-04T00:55:45.805Z,89.89
2022-10-04T00:55:55.797Z,89.89
2022-10-04T00:56:05.945Z,89.89
2022-10-04T00:56:15.815Z,89.89
2022-10-04T00:56:25.801Z,89.89
2022-10-04T00:56:35.798Z,89.89
2022-10-04T00:56:46.389Z,89.89
2022-10-04T00:56:55.812Z,89.99
2022-10-04T00:57:05.791Z,90.09
2022-10-04T00:57:15.797Z,89.99
2022-10-04T00:57:26.394Z,89.89
2022-10-04T00:57:35.790Z,89.89
2022-10-04T00:57:46.006Z,89.89
2022-10-04T00:57:55.807Z,89.89
2022-10-04T00:58:05.894Z,89.99
2022-10-04T00:58:15.784Z,89.89
2022-10-04T00:58:25.782Z,89.99
2022-10-04T00:58:35.795Z,89.89
2022-10-04T00:58:46.515Z,89.89
2022-10-04T00:58:55.784Z,89.89
2022-10-04T00:59:05.794Z,89.89
2022-10-04T00:59:15.789Z,89.99
2022-10-04T00:59:26.378Z,89.94
2022-10-04T00:59:35.863Z,89.95
2022-10-04T00:59:45.798Z,89.94
2022-10-04T00:59:55.772Z,89.94
2022-10-04T01:00:05.806Z,89.99
2022-10-04T01:00:15.802Z,89.99
2022-10-04T01:00:25.772Z,89.99
2022-10-04T01:00:35.781Z,89.89
2022-10-04T01:00:45.845Z,89.99
2022-10-04T01:00:55.921Z,89.99
2022-10-04T01:01:05.811Z,89.89
2022-10-04T01:01:15.856Z,89.89
2022-10-04T01:01:25.926Z,89.89
2022-10-04T01:01:36.503Z,89.99
2022-10-04T01:01:46.062Z,89.99
2022-10-04T01:01:55.870Z,89.99
2022-10-04T01:02:05.855Z,89.99
2022-10-04T01:02:15.891Z,90.03
2022-10-04T01:02:25.881Z,90.03
2022-10-04T01:02:35.810Z,89.89
2022-10-04T01:02:45.780Z,89.89
2022-10-04T01:02:55.811Z,89.99
2022-10-04T01:03:05.776Z,89.99
2022-10-04T01:03:15.759Z,89.89
2022-10-04T01:03:25.764Z,89.89
2022-10-04T01:03:35.774Z,89.89
2022-10-04T01:03:45.755Z,89.99
2022-10-04T01:03:55.755Z,89.89
2022-10-04T01:04:05.777Z,89.99
2022-10-04T01:04:15.757Z,89.99
2022-10-04T01:04:25.772Z,89.89
2022-10-04T01:04:35.787Z,89.79
2022-10-04T01:04:45.790Z,89.79
2022-10-04T01:04:55.801Z,89.79
2022-10-04T01:05:05.785Z,89.79
2022-10-04T01:05:15.750Z,89.75
2022-10-04T01:05:25.760Z,89.79
2022-10-04T01:05:35.764Z,89.79
2022-10-04T01:05:45.828Z,89.79
2022-10-04T01:05:55.771Z,89.59
2022-10-04T01:06:05.740Z,89.48
2022-10-04T01:06:15.771Z,89.48
2022-10-04T01:06:25.759Z,89.59
2022-10-04T01:06:35.744Z,89.59
2022-10-04T01:06:45.741Z,89.69
2022-10-04T01:06:55.762Z,89.69
2022-10-04T01:07:05.743Z,89.69
2022-10-04T01:07:15.749Z,89.79
2022-10-04T01:07:25.777Z,89.79
2022-10-04T01:07:35.745Z,89.79
2022-10-04T01:07:46.429Z,89.79
2022-10-04T01:07:55.846Z,89.79
2022-10-04T01:08:05.806Z,89.75
2022-10-04T01:08:15.755Z,89.64
2022-10-04T01:08:25.744Z,89.79
2022-10-04T01:08:35.760Z,89.69
2022-10-04T01:08:45.743Z,89.69
2022-10-04T01:08:55.731Z,89.59
2022-10-04T01:09:05.748Z,89.48
2022-10-04T01:09:15.743Z,89.59
2022-10-04T01:09:25.744Z,89.59
2022-10-04T01:09:35.775Z,89.59
2022-10-04T01:09:45.752Z,89.59
2022-10-04T01:09:55.787Z,89.69
2022-10-04T01:10:05.727Z,89.69
2022-10-04T01:10:15.747Z,89.59
2022-10-04T01:10:25.728Z,89.38
2022-10-04T01:10:36.385Z,89.38
2022-10-04T01:10:45.872Z,89.38
2022-10-04T01:10:55.734Z,89.38
2022-10-04T01:11:05.735Z,89.38
2022-10-04T01:11:15.775Z,89.38
2022-10-04T01:11:25.717Z,89.38
2022-10-04T01:11:36.386Z,89.34
2022-10-04T01:11:45.740Z,89.38
2022-10-04T01:11:56.388Z,89.38
2022-10-04T01:12:06.354Z,89.48
2022-10-04T01:12:16.386Z,89.44
2022-10-04T01:12:25.733Z,89.48
2022-10-04T01:12:35.733Z,89.44
2022-10-04T01:12:45.716Z,89.48
2022-10-04T01:12:55.826Z,89.38
2022-10-04T01:13:05.740Z,89.38
2022-10-04T01:13:16.422Z,89.48
2022-10-04T01:13:25.711Z,89.48
2022-10-04T01:13:35.716Z,89.38
2022-10-04T01:13:45.719Z,89.44
2022-10-04T01:13:55.717Z,89.28
2022-10-04T01:14:05.762Z,89.38
2022-10-04T01:14:15.711Z,89.38
2022-10-04T01:14:26.544Z,89.28
2022-10-04T01:14:35.714Z,89.28
2022-10-04T01:14:45.716Z,89.32
2022-10-04T01:14:55.717Z,89.38
2022-10-04T01:15:05.718Z,89.44
2022-10-04T01:15:15.723Z,89.44
2022-10-04T01:15:25.788Z,89.48
2022-10-04T01:15:35.774Z,89.44
2022-10-04T01:15:45.736Z,89.48
2022-10-04T01:15:55.779Z,89.38
2022-10-04T01:16:06.466Z,89.38
2022-10-04T01:16:16.497Z,89.28
2022-10-04T01:16:26.472Z,89.28
2022-10-04T01:16:35.699Z,89.28
2022-10-04T01:16:45.720Z,89.38
2022-10-04T01:16:55.724Z,89.38
2022-10-04T01:17:05.696Z,89.38
2022-10-04T01:17:15.706Z,89.38
2022-10-04T01:17:25.709Z,89.34
2022-10-04T01:17:35.692Z,89.28
2022-10-04T01:17:45.714Z,89.38
2022-10-04T01:17:55.687Z,89.38
2022-10-04T01:18:09.171Z,89.38
2022-10-04T01:18:15.860Z,89.38
2022-10-04T01:18:25.958Z,89.48
2022-10-04T01:18:35.685Z,89.48
2022-10-04T01:18:45.764Z,89.48
2022-10-04T01:18:55.685Z,89.59
2022-10-04T01:19:05.794Z,89.59
2022-10-04T01:19:15.708Z,89.38
2022-10-04T01:19:25.692Z,89.38
2022-10-04T01:19:35.701Z,89.38
2022-10-04T01:19:45.713Z,89.38
2022-10-04T01:19:55.744Z,89.38
2022-10-04T01:20:05.690Z,89.34
2022-10-04T01:20:15.717Z,89.48
2022-10-04T01:20:25.698Z,89.44
2022-10-04T01:20:35.694Z,89.59
2022-10-04T01:20:45.728Z,89.48
2022-10-04T01:20:55.676Z,89.48
2022-10-04T01:21:05.685Z,89.34
2022-10-04T01:21:15.671Z,89.38
2022-10-04T01:21:25.678Z,89.48
2022-10-04T01:21:35.677Z,89.48
2022-10-04T01:21:45.674Z,89.48
2022-10-04T01:21:56.635Z,89.48
2022-10-04T01:22:06.651Z,89.48
2022-10-04T01:22:16.394Z,89.48
2022-10-04T01:22:25.735Z,89.48
2022-10-04T01:22:35.673Z,89.48
2022-10-04T01:22:45.682Z,89.48
2022-10-04T01:22:55.683Z,89.48
2022-10-04T01:23:05.711Z,89.48
2022-10-04T01:23:15.667Z,89.59
2022-10-04T01:23:26.396Z,89.59
2022-10-04T01:23:35.744Z,89.59
2022-10-04T01:23:45.670Z,89.48
2022-10-04T01:23:55.675Z,89.48
2022-10-04T01:24:06.435Z,89.48
2022-10-04T01:24:15.666Z,89.48
2022-10-04T01:24:26.412Z,89.59
2022-10-04T01:24:35.654Z,89.59
2022-10-04T01:24:45.675Z,89.59
2022-10-04T01:24:55.682Z,89.59
2022-10-04T01:25:05.660Z,89.48
2022-10-04T01:25:15.656Z,89.48
2022-10-04T01:25:25.683Z,89.59
2022-10-04T01:25:35.654Z,89.59
2022-10-04T01:25:46.419Z,89.63
2022-10-04T01:25:55.666Z,89.73
2022-10-04T01:26:05.657Z,89.59
2022-10-04T01:26:15.708Z,89.69
2022-10-04T01:26:26.407Z,89.69
2022-10-04T01:26:35.722Z,89.69
2022-10-04T01:26:45.666Z,89.59
2022-10-04T01:26:55.658Z,89.59
2022-10-04T01:27:05.663Z,89.53
2022-10-04T01:27:15.699Z,89.48
2022-10-04T01:27:25.645Z,89.59
2022-10-04T01:27:35.665Z,89.48
2022-10-04T01:27:45.696Z,89.48
2022-10-04T01:27:55.705Z,89.48
2022-10-04T01:28:05.716Z,89.44
2022-10-04T01:28:15.789Z,89.48
2022-10-04T01:28:25.826Z,89.44
2022-10-04T01:28:36.500Z,89.48
2022-10-04T01:28:46.410Z,89.34
2022-10-04T01:28:55.641Z,89.38
2022-10-04T01:29:05.651Z,89.38
2022-10-04T01:29:15.709Z,89.38
2022-10-04T01:29:25.638Z,89.48
2022-10-04T01:29:35.680Z,89.59
2022-10-04T01:29:46.425Z,89.59
2022-10-04T01:29:55.651Z,89.48
2022-10-04T01:30:05.643Z,89.53
2022-10-04T01:30:15.651Z,89.63
2022-10-04T01:30:25.652Z,89.73
2022-10-04T01:30:36.402Z,89.59
2022-10-04T01:30:45.704Z,89.48
2022-10-04T01:30:55.709Z,89.59
2022-10-04T01:31:05.701Z,89.59
2022-10-04T01:31:15.684Z,89.59
2022-10-04T01:31:25.813Z,89.63
2022-10-04T01:31:35.690Z,89.59
2022-10-04T01:31:46.022Z,89.63
2022-10-04T01:31:55.732Z,89.69
2022-10-04T01:32:05.625Z,89.69
2022-10-04T01:32:22.389Z,89.69
2022-10-04T01:32:25.639Z,89.59
2022-10-04T01:32:35.666Z,89.69
2022-10-04T01:32:45.671Z,89.59
2022-10-04T01:32:55.743Z,89.38
2022-10-04T01:33:05.642Z,89.42
2022-10-04T01:33:15.640Z,89.42
2022-10-04T01:33:25.693Z,89.48
2022-10-04T01:33:35.611Z,89.53
2022-10-04T01:33:45.711Z,89.48
2022-10-04T01:33:55.675Z,89.48
2022-10-04T01:34:05.621Z,89.48
2022-10-04T01:34:16.401Z,89.59
2022-10-04T01:34:25.644Z,89.59
2022-10-04T01:34:35.610Z,89.53
2022-10-04T01:34:45.619Z,89.59
2022-10-04T01:34:55.679Z,89.53
2022-10-04T01:35:05.633Z,89.63
2022-10-04T01:35:15.625Z,89.48
2022-10-04T01:35:25.621Z,89.48
2022-10-04T01:35:35.625Z,89.48
2022-10-04T01:35:45.626Z,89.38
2022-10-04T01:35:55.615Z,89.48
2022-10-04T01:36:05.621Z,89.48
2022-10-04T01:36:15.635Z,89.48
2022-10-04T01:36:25.609Z,89.48
2022-10-04T01:36:35.608Z,89.48
2022-10-04T01:36:45.624Z,89.59
2022-10-04T01:36:56.432Z,89.48
2022-10-04T01:37:05.601Z,89.53
2022-10-04T01:37:15.603Z,89.48
2022-10-04T01:37:25.607Z,89.48
2022-10-04T01:37:35.613Z,89.38
2022-10-04T01:37:45.605Z,89.48
2022-10-04T01:37:56.398Z,89.42
2022-10-04T01:38:05.607Z,89.53
2022-10-04T01:38:15.610Z,89.48
2022-10-04T01:38:25.639Z,89.59
2022-10-04T01:38:35.614Z,89.63
2022-10-04T01:38:45.601Z,89.59
2022-10-04T01:38:55.612Z,89.73
2022-10-04T01:39:06.398Z,89.63
2022-10-04T01:39:15.596Z,89.63
2022-10-04T01:39:26.441Z,89.63
2022-10-04T01:39:35.596Z,89.59
2022-10-04T01:39:45.600Z,89.59
2022-10-04T01:39:55.599Z,89.63
2022-10-04T01:40:05.619Z,89.73
2022-10-04T01:40:15.584Z,89.73
2022-10-04T01:40:25.685Z,89.69
2022-10-04T01:40:35.587Z,89.69
2022-10-04T01:40:45.583Z,89.69
2022-10-04T01:40:55.597Z,89.69
2022-10-04T01:41:06.410Z,89.69
2022-10-04T01:41:15.594Z,89.69
2022-10-04T01:41:25.600Z,89.83
2022-10-04T01:41:35.575Z,89.73
2022-10-04T01:41:45.606Z,89.69
2022-10-04T01:41:55.601Z,89.73
2022-10-04T01:42:05.599Z,89.73
2022-10-04T01:42:16.414Z,89.69
2022-10-04T01:42:25.594Z,89.69
2022-10-04T01:42:35.576Z,89.69
2022-10-04T01:42:45.590Z,89.69
2022-10-04T01:42:55.600Z,89.79
2022-10-04T01:43:05.594Z,89.69
2022-10-04T01:43:15.642Z,89.79
2022-10-04T01:43:25.581Z,89.73
2022-10-04T01:43:35.569Z,89.83
2022-10-04T01:43:45.589Z,89.79
2022-10-04T01:43:55.574Z,89.73
2022-10-04T01:44:05.573Z,89.48
2022-10-04T01:44:15.697Z,89.48
2022-10-04T01:44:25.577Z,89.38
2022-10-04T01:44:35.575Z,89.38
2022-10-04T01:44:45.578Z,89.42
2022-10-04T01:44:56.456Z,89.28
2022-10-04T01:45:05.581Z,89.42
2022-10-04T01:45:16.421Z,89.53
2022-10-04T01:45:25.583Z,89.48
2022-10-04T01:45:35.561Z,89.44
2022-10-04T01:45:45.594Z,89.48
2022-10-04T01:45:55.592Z,89.48
2022-10-04T01:46:05.646Z,89.38
2022-10-04T01:46:15.659Z,89.42
2022-10-04T01:46:25.631Z,89.48
2022-10-04T01:46:35.615Z,89.48
2022-10-04T01:46:45.654Z,89.63
2022-10-04T01:46:55.595Z,89.48
2022-10-04T01:47:05.589Z,89.53
2022-10-04T01:47:15.565Z,89.38
2022-10-04T01:47:25.755Z,89.48
2022-10-04T01:47:35.584Z,89.48
2022-10-04T01:47:45.562Z,89.38
2022-10-04T01:47:55.559Z,89.53
2022-10-04T01:48:05.574Z,89.53
2022-10-04T01:48:15.566Z,89.48
2022-10-04T01:48:25.561Z,89.38
2022-10-04T01:48:35.569Z,89.42
2022-10-04T01:48:45.549Z,89.48
2022-10-04T01:48:55.557Z,89.38
2022-10-04T01:49:05.557Z,89.42
2022-10-04T01:49:15.541Z,89.38
2022-10-04T01:49:25.614Z,89.42
2022-10-04T01:49:35.548Z,89.42
2022-10-04T01:49:45.594Z,89.53
2022-10-04T01:49:55.569Z,89.42
2022-10-04T01:50:07.530Z,89.53
2022-10-04T01:50:16.030Z,89.48
2022-10-04T01:50:25.554Z,89.48
2022-10-04T01:50:35.538Z,89.53
2022-10-04T01:50:45.561Z,89.53
2022-10-04T01:50:55.531Z,89.59
2022-10-04T01:51:05.557Z,89.59
2022-10-04T01:51:15.539Z,89.53
2022-10-04T01:51:26.416Z,89.53
2022-10-04T01:51:35.533Z,89.53
2022-10-04T01:51:45.548Z,89.59
2022-10-04T01:51:56.460Z,89.53
2022-10-04T01:52:05.563Z,89.53
2022-10-04T01:52:15.545Z,89.53
2022-10-04T01:52:25.541Z,89.42
2022-10-04T01:52:35.532Z,89.42
2022-10-04T01:52:45.549Z,89.42
2022-10-04T01:52:55.538Z,89.42
2022-10-04T01:53:05.567Z,89.38
2022-10-04T01:53:16.561Z,89.53
2022-10-04T01:53:25.536Z,89.53
2022-10-04T01:53:35.544Z,89.59
2022-10-04T01:53:45.549Z,89.53
2022-10-04T01:53:55.516Z,89.53
2022-10-04T01:54:05.528Z,89.42
2022-10-04T01:54:16.424Z,89.53
2022-10-04T01:54:25.550Z,89.53
2022-10-04T01:54:36.067Z,89.53
2022-10-04T01:54:45.514Z,89.53
2022-10-04T01:54:55.520Z,89.38
2022-10-04T01:55:05.537Z,89.42
2022-10-04T01:55:15.528Z,89.42
2022-10-04T01:55:25.515Z,89.38
2022-10-04T01:55:35.533Z,89.42
2022-10-04T01:55:45.599Z,89.42
2022-10-04T01:55:55.518Z,89.48
2022-10-04T01:56:05.542Z,89.48
2022-10-04T01:56:15.534Z,89.48
2022-10-04T01:56:25.520Z,89.53
2022-10-04T01:56:35.539Z,89.59
2022-10-04T01:56:45.521Z,89.53
2022-10-04T01:56:55.537Z,89.63
2022-10-04T01:57:05.531Z,89.59
2022-10-04T01:57:15.640Z,89.59
2022-10-04T01:57:25.619Z,89.63
2022-10-04T01:57:35.510Z,89.69
2022-10-04T01:57:46.427Z,89.63
2022-10-04T01:57:55.510Z,89.59
2022-10-04T01:58:05.535Z,89.59
2022-10-04T01:58:15.500Z,89.69
2022-10-04T01:58:25.558Z,89.69
2022-10-04T01:58:35.511Z,89.63
2022-10-04T01:58:45.501Z,89.59
2022-10-04T01:58:55.524Z,89.63
2022-10-04T01:59:05.501Z,89.63
2022-10-04T01:59:15.511Z,89.73
2022-10-04T01:59:25.715Z,89.59
2022-10-04T01:59:35.495Z,89.73
2022-10-04T01:59:45.590Z,89.73
2022-10-04T01:59:55.530Z,89.69
2022-10-04T02:00:05.510Z,89.69
2022-10-04T02:00:15.501Z,89.73
2022-10-04T02:00:25.491Z,89.73
2022-10-04T02:00:35.512Z,89.83
2022-10-04T02:00:45.582Z,89.73
2022-10-04T02:00:55.573Z,89.73
2022-10-04T02:01:05.540Z,89.83
2022-10-04T02:01:15.548Z,89.73
2022-10-04T02:01:25.566Z,89.83
2022-10-04T02:01:35.601Z,89.83
2022-10-04T02:01:45.901Z,89.83
2022-10-04T02:01:55.538Z,89.73
2022-10-04T02:02:06.411Z,89.73
2022-10-04T02:02:15.654Z,89.83
2022-10-04T02:02:25.489Z,89.73
2022-10-04T02:02:35.511Z,89.79
2022-10-04T02:02:45.501Z,89.73
2022-10-04T02:02:55.493Z,89.83
2022-10-04T02:03:05.482Z,89.83
2022-10-04T02:03:15.524Z,89.94
2022-10-04T02:03:25.472Z,89.83
2022-10-04T02:03:35.539Z,89.83
2022-10-04T02:03:45.522Z,89.83
2022-10-04T02:03:55.502Z,89.83
2022-10-04T02:04:05.553Z,89.79
2022-10-04T02:04:18.590Z,89.83
2022-10-04T02:04:25.514Z,89.94
2022-10-04T02:04:35.564Z,89.83
2022-10-04T02:04:45.709Z,89.83
2022-10-04T02:04:57.586Z,89.79
2022-10-04T02:05:05.650Z,89.83
2022-10-04T02:05:15.480Z,89.73
2022-10-04T02:05:25.478Z,89.73
2022-10-04T02:05:35.501Z,89.73
2022-10-04T02:05:45.463Z,89.73
2022-10-04T02:05:55.522Z,89.73
2022-10-04T02:06:05.516Z,89.73
2022-10-04T02:06:15.488Z,89.73
2022-10-04T02:06:25.499Z,89.73
2022-10-04T02:06:35.509Z,89.73
2022-10-04T02:06:45.470Z,89.79
2022-10-04T02:06:55.486Z,89.83
2022-10-04T02:07:05.470Z,89.83
2022-10-04T02:07:15.491Z,89.83
2022-10-04T02:07:25.495Z,89.83
2022-10-04T02:07:35.636Z,89.83
2022-10-04T02:07:46.416Z,89.79
2022-10-04T02:07:55.479Z,89.83
2022-10-04T02:08:05.514Z,89.83
2022-10-04T02:08:15.653Z,89.83
2022-10-04T02:08:25.473Z,89.89
2022-10-04T02:08:35.471Z,89.94
2022-10-04T02:08:45.460Z,89.94